createdAt,value
2017-07-02T00:01:48.379Z,0
2017-07-02T00:04:12.164Z,0
2017-07-02T00:06:35.970Z,0
2017-07-02T00:08:59.776Z,0
2017-07-02T00:11:15.169Z,0
2017-07-02T00:13:38.987Z,0
2017-07-02T00:16:02.808Z,0
2017-07-02T00:18:12.652Z,0
2017-07-02T00:20:36.481Z,0
2017-07-02T00:23:00.287Z,0
2017-07-02T00:25:24.029Z,0
2017-07-02T00:27:47.927Z,0
2017-07-02T00:30:12.849Z,0
2017-07-02T00:32:36.562Z,0
2017-07-02T00:35:00.363Z,0
2017-07-02T00:37:24.165Z,0
2017-07-02T00:39:47.935Z,0
2017-07-02T00:42:03.316Z,0
2017-07-02T00:44:18.694Z,0
2017-07-02T00:46:25.685Z,0
2017-07-02T00:48:49.496Z,0
2017-07-02T00:53:06.239Z,0
2017-07-02T00:55:21.652Z,0
2017-07-02T00:57:37.054Z,0
2017-07-02T01:00:00.867Z,0
2017-07-02T01:02:24.678Z,0
2017-07-02T01:06:24.288Z,0
2017-07-02T01:08:48.132Z,0
2017-07-02T01:11:11.971Z,0
2017-07-02T01:13:18.932Z,0
2017-07-02T01:15:34.347Z,0
2017-07-02T01:17:58.188Z,0
2017-07-02T01:20:21.998Z,0
2017-07-02T01:22:37.394Z,0
2017-07-02T01:24:47.238Z,0
2017-07-02T01:27:11.076Z,0
2017-07-02T01:31:36.318Z,0
2017-07-02T01:34:00.108Z,0
2017-07-02T01:36:23.913Z,0
2017-07-02T01:38:47.724Z,0
2017-07-02T01:41:03.133Z,0
2017-07-02T01:43:18.525Z,0
2017-07-02T01:45:42.349Z,0
2017-07-02T01:47:57.733Z,0
2017-07-02T01:50:21.582Z,0
2017-07-02T01:52:45.421Z,0
2017-07-02T01:55:09.259Z,0
2017-07-02T01:59:08.892Z,0
2017-07-02T02:01:32.718Z,0
2017-07-02T02:03:56.576Z,0
2017-07-02T02:06:20.483Z,0
2017-07-02T02:08:44.342Z,0
2017-07-02T02:10:59.758Z,0
2017-07-02T02:13:23.568Z,0
2017-07-02T02:15:47.414Z,0
2017-07-02T02:18:11.340Z,0
2017-07-02T02:20:35.165Z,0
2017-07-02T02:22:59.041Z,0
2017-07-02T02:25:22.911Z,0
2017-07-02T02:27:46.769Z,0
2017-07-02T02:30:10.703Z,0
2017-07-02T02:32:34.556Z,0
2017-07-02T02:34:58.448Z,0
2017-07-02T02:37:05.385Z,0
2017-07-02T02:39:29.234Z,0
2017-07-02T02:41:53.087Z,0
2017-07-02T02:44:08.526Z,0
2017-07-02T02:46:32.380Z,0
2017-07-02T02:48:56.233Z,0
2017-07-02T02:51:20.029Z,0
2017-07-02T02:53:43.868Z,0
2017-07-02T02:56:07.711Z,0
2017-07-02T02:58:31.576Z,0
2017-07-02T03:00:55.419Z,0
2017-07-02T03:03:19.313Z,0
2017-07-02T03:05:34.729Z,0
2017-07-02T03:07:58.588Z,4
2017-07-02T03:10:22.435Z,4
2017-07-02T03:12:46.310Z,4
2017-07-02T03:15:10.161Z,4
2017-07-02T03:17:34.040Z,8
2017-07-02T03:19:57.917Z,4
2017-07-02T03:22:21.785Z,12
2017-07-02T03:24:45.659Z,16
2017-07-02T03:27:01.104Z,16
2017-07-02T03:29:24.907Z,20
2017-07-02T03:31:48.741Z,24
2017-07-02T03:34:12.554Z,32
2017-07-02T03:36:27.968Z,40
2017-07-02T03:38:51.812Z,44
2017-07-02T03:41:15.633Z,52
2017-07-02T03:43:39.414Z,64
2017-07-02T03:46:03.221Z,68
2017-07-02T03:48:27.069Z,72
2017-07-02T03:50:42.442Z,76
2017-07-02T03:53:06.266Z,84
2017-07-02T03:55:21.689Z,92
2017-07-02T03:57:45.525Z,112
2017-07-02T04:00:09.358Z,140
2017-07-02T04:02:33.204Z,124
2017-07-02T04:04:57.028Z,116
2017-07-02T04:07:20.870Z,144
2017-07-02T04:11:46.056Z,180
2017-07-02T04:14:09.915Z,216
2017-07-02T04:16:33.778Z,264
2017-07-02T04:18:49.158Z,308
2017-07-02T04:21:13.011Z,324
2017-07-02T04:23:28.381Z,316
2017-07-02T04:25:43.828Z,348
2017-07-02T04:28:07.701Z,360
2017-07-02T04:30:31.560Z,400
2017-07-02T04:32:55.413Z,404
2017-07-02T04:35:19.269Z,400
2017-07-02T04:37:34.715Z,536
2017-07-02T04:39:50.150Z,584
2017-07-02T04:42:14.013Z,624
2017-07-02T04:44:37.865Z,612
2017-07-02T04:46:53.245Z,664
2017-07-02T04:49:17.165Z,668
2017-07-02T04:51:32.604Z,820
2017-07-02T04:53:56.474Z,700
2017-07-02T04:56:20.344Z,720
2017-07-02T04:58:44.228Z,648
2017-07-02T05:01:08.107Z,648
2017-07-02T05:03:31.916Z,624
2017-07-02T05:05:55.726Z,576
2017-07-02T05:08:11.141Z,500
2017-07-02T05:10:35.019Z,500
2017-07-02T05:12:58.826Z,540
2017-07-02T05:15:08.707Z,484
2017-07-02T05:17:32.634Z,492
2017-07-02T05:19:56.518Z,572
2017-07-02T05:22:20.385Z,596
2017-07-02T05:24:44.373Z,576
2017-07-02T05:27:08.241Z,584
2017-07-02T05:31:33.582Z,584
2017-07-02T05:33:57.494Z,676
2017-07-02T05:36:21.402Z,792
2017-07-02T05:38:45.286Z,972
2017-07-02T05:41:09.115Z,1172
2017-07-02T05:43:32.997Z,1688
2017-07-02T05:45:56.911Z,2372
2017-07-02T05:50:05.625Z,1284
2017-07-02T05:52:29.616Z,1356
2017-07-02T05:54:53.605Z,1708
2017-07-02T05:57:17.598Z,1976
2017-07-02T05:59:41.601Z,1864
2017-07-02T06:02:05.569Z,1692
2017-07-02T06:04:29.554Z,1572
2017-07-02T06:06:53.566Z,1708
2017-07-02T06:09:09.126Z,1868
2017-07-02T06:11:33.148Z,1692
2017-07-02T06:13:57.157Z,1752
2017-07-02T06:16:21.178Z,1892
2017-07-02T06:22:40.924Z,1856
2017-07-02T06:25:04.961Z,1580
2017-07-02T06:27:28.951Z,1492
2017-07-02T06:29:52.949Z,1532
2017-07-02T06:32:16.977Z,1600
2017-07-02T06:34:40.996Z,1560
2017-07-02T06:37:04.980Z,1676
2017-07-02T06:39:29.045Z,1644
2017-07-02T06:41:53.064Z,1420
2017-07-02T06:44:17.029Z,1020
2017-07-02T06:46:40.974Z,1052
2017-07-02T06:49:05.003Z,1104
2017-07-02T06:51:20.599Z,1036
2017-07-02T06:55:20.355Z,1244
2017-07-02T06:57:35.986Z,1044
2017-07-02T07:04:03.778Z,796
2017-07-02T07:06:36.378Z,884
2017-07-02T07:09:00.490Z,796
2017-07-02T07:11:16.107Z,812
2017-07-02T07:13:31.775Z,1028
2017-07-02T07:15:55.783Z,1172
2017-07-02T07:18:19.812Z,1312
2017-07-02T07:20:43.846Z,1676
2017-07-02T07:23:07.897Z,1788
2017-07-02T07:25:31.942Z,1672
2017-07-02T07:27:56.070Z,1540
2017-07-02T07:30:20.109Z,1428
2017-07-02T07:32:44.164Z,1340
2017-07-02T07:35:08.240Z,1272
2017-07-02T07:37:32.295Z,1228
2017-07-02T07:39:56.351Z,1220
2017-07-02T07:42:27.184Z,1208
2017-07-02T07:44:51.247Z,1200
2017-07-02T07:47:15.328Z,1260
2017-07-02T07:49:39.335Z,1256
2017-07-02T07:52:03.422Z,1212
2017-07-02T07:54:27.508Z,1156
2017-07-02T07:56:51.633Z,1160
2017-07-02T07:59:15.676Z,1212
2017-07-02T08:01:39.771Z,1332
2017-07-02T08:04:04.063Z,1436
2017-07-02T08:06:28.194Z,1592
2017-07-02T08:08:52.320Z,1776
2017-07-02T08:11:16.394Z,1836
2017-07-02T08:13:40.483Z,2032
2017-07-02T08:15:50.930Z,2020
2017-07-02T08:18:15.059Z,1840
2017-07-02T08:20:39.165Z,2056
2017-07-02T08:23:03.314Z,2504
2017-07-02T08:25:27.342Z,3020
2017-07-02T08:27:51.466Z,2704
2017-07-02T08:30:15.596Z,2608
2017-07-02T08:32:39.695Z,2544
2017-07-02T08:35:03.830Z,2588
2017-07-02T08:37:27.914Z,2268
2017-07-02T08:39:52.523Z,2284
2017-07-02T08:42:08.210Z,2232
2017-07-02T08:44:32.582Z,2436
2017-07-02T08:46:56.664Z,2464
2017-07-02T08:49:21.193Z,2548
2017-07-02T08:51:45.462Z,3092
2017-07-02T08:54:09.759Z,8580
2017-07-02T08:56:34.020Z,11268
2017-07-02T08:58:58.284Z,14544
2017-07-02T09:01:23.996Z,12124
2017-07-02T09:03:49.346Z,5928
2017-07-02T09:08:23.008Z,4356
2017-07-02T09:10:47.690Z,3860
2017-07-02T09:13:12.401Z,2964
2017-07-02T09:15:37.001Z,3268
2017-07-02T09:18:01.492Z,5224
2017-07-02T09:20:26.097Z,6908
2017-07-02T09:22:50.591Z,7740
2017-07-02T20:09:26.519Z,0
2017-07-02T20:11:57.995Z,0
2017-07-02T20:14:23.164Z,0
2017-07-02T20:16:47.448Z,0
2017-07-02T20:19:13.063Z,0
2017-07-02T20:21:37.800Z,0
2017-07-02T20:24:01.695Z,0
2017-07-02T20:26:25.685Z,0
2017-07-02T20:28:49.597Z,0
2017-07-02T20:31:13.481Z,0
2017-07-02T20:35:39.283Z,0
2017-07-02T20:38:04.811Z,0
2017-07-02T20:40:28.473Z,0
2017-07-02T20:44:40.998Z,0
2017-07-02T20:47:05.141Z,0
2017-07-02T20:49:28.977Z,0
2017-07-02T20:51:52.921Z,0
2017-07-02T20:54:16.825Z,0
2017-07-02T20:56:40.745Z,0
2017-07-02T20:59:04.675Z,0
2017-07-02T21:01:20.210Z,0
2017-07-02T21:03:44.050Z,0
2017-07-02T21:05:59.486Z,0
2017-07-02T21:08:23.378Z,0
2017-07-02T21:10:47.316Z,0
2017-07-02T21:13:11.212Z,0
2017-07-02T21:15:35.119Z,0
2017-07-02T21:17:58.991Z,0
2017-07-02T21:22:17.284Z,0
2017-07-02T21:24:27.650Z,0
2017-07-02T21:26:51.506Z,0
2017-07-02T21:29:15.329Z,0
2017-07-02T21:31:39.234Z,0
2017-07-02T21:34:03.057Z,0
2017-07-02T21:36:26.969Z,0
2017-07-02T21:38:50.786Z,0
2017-07-02T21:41:14.661Z,0
2017-07-02T21:43:38.529Z,0
2017-07-02T21:46:02.397Z,0
2017-07-02T21:48:26.193Z,0
2017-07-02T21:50:50.019Z,0
2017-07-02T21:53:13.853Z,0
2017-07-02T21:55:37.708Z,0
2017-07-02T21:58:01.584Z,0
2017-07-02T22:00:25.505Z,0
2017-07-02T22:02:49.308Z,0
2017-07-02T22:05:13.165Z,0
2017-07-02T22:07:37.023Z,0
2017-07-02T22:10:00.864Z,0
2017-07-02T22:12:24.710Z,0
2017-07-02T22:14:48.455Z,0
2017-07-02T22:17:12.303Z,0
2017-07-02T22:19:36.132Z,0
2017-07-02T22:21:59.985Z,0
2017-07-02T22:24:23.801Z,0
2017-07-02T22:26:47.659Z,0
2017-07-02T22:29:11.485Z,0
2017-07-02T22:31:35.334Z,0
2017-07-02T22:33:59.205Z,0
2017-07-02T22:36:23.021Z,0
2017-07-02T22:38:46.849Z,0
2017-07-02T22:41:10.708Z,0
2017-07-02T22:43:34.541Z,0
2017-07-02T22:45:58.376Z,0
2017-07-02T22:48:22.232Z,0
2017-07-02T22:50:46.019Z,0
2017-07-02T22:53:09.877Z,0
2017-07-02T22:55:20.224Z,0
2017-07-02T22:57:44.104Z,0
2017-07-02T23:00:07.941Z,0
2017-07-02T23:02:31.719Z,0
2017-07-02T23:04:55.616Z,0
2017-07-02T23:07:19.422Z,0
2017-07-02T23:09:43.307Z,0
2017-07-02T23:12:07.126Z,0
2017-07-02T23:14:17.448Z,0
2017-07-02T23:16:41.343Z,0
2017-07-02T23:19:05.206Z,0
2017-07-02T23:21:29.055Z,0
2017-07-02T23:23:53.001Z,0
2017-07-02T23:26:16.802Z,0
2017-07-02T23:28:40.721Z,0
2017-07-02T23:31:04.626Z,0
2017-07-02T23:33:28.433Z,0
2017-07-02T23:35:52.313Z,0
2017-07-02T23:38:16.152Z,0
2017-07-02T23:40:40.015Z,0
2017-07-02T23:43:03.866Z,0
2017-07-02T23:45:27.646Z,0
2017-07-02T23:47:51.570Z,0
2017-07-02T23:50:31.334Z,0
2017-07-02T23:52:55.234Z,0
2017-07-02T23:55:19.122Z,0
2017-07-02T23:57:43.000Z,0
